sensor_id;sensor_type;location;lat;lon;timestamp;P1;durP1;ratioP1;P2;durP2;ratioP2
84818;SDS011;75053;51.080;13.712;2024-02-26T00:01:49;23.80;;;14.60;;
84818;SDS011;75053;51.080;13.712;2024-02-26T00:04:14;21.90;;;14.90;;
84818;SDS011;75053;51.080;13.712;2024-02-26T00:06:43;22.17;;;14.43;;
84818;SDS011;75053;51.080;13.712;2024-02-26T00:09:08;21.50;;;14.43;;
84818;SDS011;75053;51.080;13.712;2024-02-26T00:11:37;19.47;;;15.10;;
84818;SDS011;75053;51.080;13.712;2024-02-26T00:14:03;20.20;;;14.17;;
84818;SDS011;75053;51.080;13.712;2024-02-26T00:16:32;22.80;;;15.20;;
84818;SDS011;75053;51.080;13.712;2024-02-26T00:18:57;23.63;;;15.90;;
84818;SDS011;75053;51.080;13.712;2024-02-26T00:21:23;23.40;;;16.20;;
84818;SDS011;75053;51.080;13.712;2024-02-26T00:23:49;21.87;;;14.83;;
84818;SDS011;75053;51.080;13.712;2024-02-26T00:26:16;19.87;;;14.87;;
84818;SDS011;75053;51.080;13.712;2024-02-26T00:28:41;20.73;;;15.27;;
84818;SDS011;75053;51.080;13.712;2024-02-26T00:31:06;21.33;;;14.90;;
84818;SDS011;75053;51.080;13.712;2024-02-26T00:33:32;21.10;;;14.77;;
84818;SDS011;75053;51.080;13.712;2024-02-26T00:35:58;23.50;;;15.37;;
84818;SDS011;75053;51.080;13.712;2024-02-26T00:38:23;21.60;;;15.17;;
84818;SDS011;75053;51.080;13.712;2024-02-26T00:40:49;25.10;;;16.10;;
84818;SDS011;75053;51.080;13.712;2024-02-26T00:43:14;24.90;;;16.37;;
84818;SDS011;75053;51.080;13.712;2024-02-26T00:45:43;21.53;;;16.23;;
84818;SDS011;75053;51.080;13.712;2024-02-26T00:48:08;24.40;;;16.10;;
84818;SDS011;75053;51.080;13.712;2024-02-26T00:50:34;25.97;;;16.27;;
84818;SDS011;75053;51.080;13.712;2024-02-26T00:53:00;24.63;;;15.57;;
84818;SDS011;75053;51.080;13.712;2024-02-26T00:55:28;24.20;;;16.07;;
84818;SDS011;75053;51.080;13.712;2024-02-26T00:57:54;24.63;;;16.00;;
84818;SDS011;75053;51.080;13.712;2024-02-26T01:00:19;24.73;;;15.87;;
84818;SDS011;75053;51.080;13.712;2024-02-26T01:02:45;21.17;;;15.83;;
84818;SDS011;75053;51.080;13.712;2024-02-26T01:05:14;23.13;;;16.10;;
84818;SDS011;75053;51.080;13.712;2024-02-26T01:07:41;22.37;;;15.93;;
84818;SDS011;75053;51.080;13.712;2024-02-26T01:10:07;21.97;;;15.40;;
84818;SDS011;75053;51.080;13.712;2024-02-26T01:12:33;20.37;;;14.93;;
84818;SDS011;75053;51.080;13.712;2024-02-26T01:15:00;23.40;;;14.60;;
84818;SDS011;75053;51.080;13.712;2024-02-26T01:17:29;19.40;;;14.53;;
84818;SDS011;75053;51.080;13.712;2024-02-26T01:19:56;20.70;;;14.53;;
84818;SDS011;75053;51.080;13.712;2024-02-26T01:22:21;21.00;;;15.53;;
84818;SDS011;75053;51.080;13.712;2024-02-26T01:24:47;20.43;;;14.40;;
84818;SDS011;75053;51.080;13.712;2024-02-26T01:27:12;24.17;;;14.77;;
84818;SDS011;75053;51.080;13.712;2024-02-26T01:29:39;21.87;;;15.13;;
84818;SDS011;75053;51.080;13.712;2024-02-26T01:32:05;18.97;;;14.97;;
84818;SDS011;75053;51.080;13.712;2024-02-26T01:34:30;23.07;;;15.93;;
84818;SDS011;75053;51.080;13.712;2024-02-26T01:36:56;21.37;;;15.87;;
84818;SDS011;75053;51.080;13.712;2024-02-26T01:39:22;23.13;;;15.17;;
84818;SDS011;75053;51.080;13.712;2024-02-26T01:41:47;24.17;;;15.80;;
84818;SDS011;75053;51.080;13.712;2024-02-26T01:44:13;21.07;;;15.10;;
84818;SDS011;75053;51.080;13.712;2024-02-26T01:46:38;25.73;;;15.47;;
84818;SDS011;75053;51.080;13.712;2024-02-26T01:49:04;22.33;;;15.40;;
84818;SDS011;75053;51.080;13.712;2024-02-26T01:51:30;22.53;;;15.43;;
84818;SDS011;75053;51.080;13.712;2024-02-26T01:53:59;25.10;;;16.83;;
84818;SDS011;75053;51.080;13.712;2024-02-26T01:56:26;23.03;;;15.10;;
84818;SDS011;75053;51.080;13.712;2024-02-26T01:58:55;25.20;;;15.30;;
84818;SDS011;75053;51.080;13.712;2024-02-26T02:01:21;27.63;;;16.77;;
84818;SDS011;75053;51.080;13.712;2024-02-26T02:03:51;23.73;;;16.10;;
84818;SDS011;75053;51.080;13.712;2024-02-26T02:06:17;22.40;;;15.53;;
84818;SDS011;75053;51.080;13.712;2024-02-26T02:08:43;21.03;;;15.30;;
84818;SDS011;75053;51.080;13.712;2024-02-26T02:11:09;20.73;;;15.83;;
84818;SDS011;75053;51.080;13.712;2024-02-26T02:13:40;23.57;;;17.30;;
84818;SDS011;75053;51.080;13.712;2024-02-26T02:16:05;23.67;;;16.27;;
84818;SDS011;75053;51.080;13.712;2024-02-26T02:18:32;22.70;;;16.23;;
84818;SDS011;75053;51.080;13.712;2024-02-26T02:20:59;23.67;;;16.70;;
84818;SDS011;75053;51.080;13.712;2024-02-26T02:26:11;21.93;;;15.27;;
84818;SDS011;75053;51.080;13.712;2024-02-26T02:28:38;22.73;;;16.60;;
84818;SDS011;75053;51.080;13.712;2024-02-26T02:31:04;26.63;;;17.17;;
84818;SDS011;75053;51.080;13.712;2024-02-26T02:33:30;24.83;;;16.23;;
84818;SDS011;75053;51.080;13.712;2024-02-26T02:35:56;22.77;;;16.00;;
84818;SDS011;75053;51.080;13.712;2024-02-26T02:38:23;23.37;;;16.40;;
84818;SDS011;75053;51.080;13.712;2024-02-26T02:40:51;21.80;;;15.50;;
84818;SDS011;75053;51.080;13.712;2024-02-26T02:43:19;28.60;;;16.67;;
84818;SDS011;75053;51.080;13.712;2024-02-26T02:45:44;22.10;;;16.57;;
84818;SDS011;75053;51.080;13.712;2024-02-26T02:48:13;25.47;;;16.57;;
84818;SDS011;75053;51.080;13.712;2024-02-26T02:50:38;28.73;;;16.77;;
84818;SDS011;75053;51.080;13.712;2024-02-26T02:53:04;25.10;;;16.07;;
84818;SDS011;75053;51.080;13.712;2024-02-26T02:55:29;22.27;;;15.20;;
84818;SDS011;75053;51.080;13.712;2024-02-26T02:57:55;22.43;;;15.33;;
84818;SDS011;75053;51.080;13.712;2024-02-26T03:00:21;25.27;;;16.10;;
84818;SDS011;75053;51.080;13.712;2024-02-26T03:02:48;23.20;;;16.17;;
84818;SDS011;75053;51.080;13.712;2024-02-26T03:05:17;32.10;;;21.73;;
84818;SDS011;75053;51.080;13.712;2024-02-26T03:07:42;37.97;;;22.10;;
84818;SDS011;75053;51.080;13.712;2024-02-26T03:10:08;40.53;;;21.07;;
84818;SDS011;75053;51.080;13.712;2024-02-26T03:12:34;27.93;;;18.30;;
84818;SDS011;75053;51.080;13.712;2024-02-26T03:15:00;35.83;;;21.20;;
84818;SDS011;75053;51.080;13.712;2024-02-26T03:17:29;35.10;;;20.50;;
84818;SDS011;75053;51.080;13.712;2024-02-26T03:19:55;29.43;;;19.27;;
84818;SDS011;75053;51.080;13.712;2024-02-26T03:22:20;32.40;;;17.53;;
84818;SDS011;75053;51.080;13.712;2024-02-26T03:24:47;26.50;;;17.70;;
84818;SDS011;75053;51.080;13.712;2024-02-26T03:27:13;26.37;;;18.53;;
84818;SDS011;75053;51.080;13.712;2024-02-26T03:29:39;32.50;;;21.60;;
84818;SDS011;75053;51.080;13.712;2024-02-26T03:32:05;35.23;;;22.77;;
84818;SDS011;75053;51.080;13.712;2024-02-26T03:34:32;36.47;;;21.23;;
84818;SDS011;75053;51.080;13.712;2024-02-26T03:37:00;26.53;;;17.90;;
84818;SDS011;75053;51.080;13.712;2024-02-26T03:39:26;28.47;;;16.93;;
84818;SDS011;75053;51.080;13.712;2024-02-26T03:41:52;27.07;;;18.07;;
84818;SDS011;75053;51.080;13.712;2024-02-26T03:44:17;29.37;;;16.73;;
84818;SDS011;75053;51.080;13.712;2024-02-26T03:46:42;28.13;;;17.30;;
84818;SDS011;75053;51.080;13.712;2024-02-26T03:49:08;25.90;;;17.33;;
84818;SDS011;75053;51.080;13.712;2024-02-26T03:51:34;28.70;;;16.63;;
84818;SDS011;75053;51.080;13.712;2024-02-26T03:53:59;23.13;;;16.23;;
84818;SDS011;75053;51.080;13.712;2024-02-26T03:56:26;26.10;;;16.37;;
84818;SDS011;75053;51.080;13.712;2024-02-26T03:58:52;24.87;;;17.13;;
84818;SDS011;75053;51.080;13.712;2024-02-26T04:01:18;30.03;;;18.07;;
84818;SDS011;75053;51.080;13.712;2024-02-26T04:03:45;24.13;;;16.53;;
84818;SDS011;75053;51.080;13.712;2024-02-26T04:06:11;37.10;;;23.03;;
84818;SDS011;75053;51.080;13.712;2024-02-26T04:08:39;26.97;;;17.67;;
84818;SDS011;75053;51.080;13.712;2024-02-26T04:11:06;24.70;;;15.83;;
84818;SDS011;75053;51.080;13.712;2024-02-26T04:13:35;27.90;;;16.13;;
84818;SDS011;75053;51.080;13.712;2024-02-26T04:16:03;22.40;;;15.00;;
84818;SDS011;75053;51.080;13.712;2024-02-26T04:18:29;24.23;;;15.47;;
84818;SDS011;75053;51.080;13.712;2024-02-26T04:20:54;24.90;;;16.10;;
84818;SDS011;75053;51.080;13.712;2024-02-26T04:23:20;22.87;;;16.77;;
84818;SDS011;75053;51.080;13.712;2024-02-26T04:25:45;23.90;;;15.90;;
84818;SDS011;75053;51.080;13.712;2024-02-26T04:28:12;25.57;;;15.13;;
84818;SDS011;75053;51.080;13.712;2024-02-26T04:30:37;23.23;;;15.27;;
84818;SDS011;75053;51.080;13.712;2024-02-26T04:33:03;21.70;;;14.80;;
84818;SDS011;75053;51.080;13.712;2024-02-26T04:35:29;23.40;;;15.07;;
84818;SDS011;75053;51.080;13.712;2024-02-26T04:37:55;29.87;;;16.53;;
84818;SDS011;75053;51.080;13.712;2024-02-26T04:40:20;24.07;;;16.13;;
84818;SDS011;75053;51.080;13.712;2024-02-26T04:42:46;27.73;;;17.90;;
84818;SDS011;75053;51.080;13.712;2024-02-26T04:45:12;30.50;;;16.77;;
84818;SDS011;75053;51.080;13.712;2024-02-26T04:47:38;29.63;;;16.53;;
84818;SDS011;75053;51.080;13.712;2024-02-26T04:50:03;27.30;;;16.67;;
84818;SDS011;75053;51.080;13.712;2024-02-26T04:52:30;25.07;;;16.67;;
84818;SDS011;75053;51.080;13.712;2024-02-26T04:54:55;27.43;;;17.03;;
84818;SDS011;75053;51.080;13.712;2024-02-26T04:57:21;26.40;;;17.10;;
84818;SDS011;75053;51.080;13.712;2024-02-26T04:59:47;30.93;;;17.60;;
84818;SDS011;75053;51.080;13.712;2024-02-26T05:02:13;26.20;;;16.00;;
84818;SDS011;75053;51.080;13.712;2024-02-26T05:04:38;26.60;;;15.47;;
84818;SDS011;75053;51.080;13.712;2024-02-26T05:07:04;28.27;;;16.10;;
84818;SDS011;75053;51.080;13.712;2024-02-26T05:09:30;27.30;;;16.10;;
84818;SDS011;75053;51.080;13.712;2024-02-26T05:11:55;29.07;;;15.93;;
84818;SDS011;75053;51.080;13.712;2024-02-26T05:14:21;23.83;;;15.70;;
84818;SDS011;75053;51.080;13.712;2024-02-26T05:16:46;23.43;;;15.70;;
84818;SDS011;75053;51.080;13.712;2024-02-26T05:19:12;23.20;;;16.30;;
84818;SDS011;75053;51.080;13.712;2024-02-26T05:21:38;24.10;;;14.83;;
84818;SDS011;75053;51.080;13.712;2024-02-26T05:24:03;26.27;;;15.90;;
84818;SDS011;75053;51.080;13.712;2024-02-26T05:26:29;25.17;;;15.40;;
84818;SDS011;75053;51.080;13.712;2024-02-26T05:29:00;30.73;;;15.47;;
84818;SDS011;75053;51.080;13.712;2024-02-26T05:31:26;24.20;;;15.47;;
84818;SDS011;75053;51.080;13.712;2024-02-26T05:33:52;26.57;;;14.63;;
84818;SDS011;75053;51.080;13.712;2024-02-26T05:36:18;25.63;;;16.20;;
84818;SDS011;75053;51.080;13.712;2024-02-26T05:38:44;27.70;;;15.60;;
84818;SDS011;75053;51.080;13.712;2024-02-26T05:41:14;22.37;;;15.33;;
84818;SDS011;75053;51.080;13.712;2024-02-26T05:43:51;29.27;;;15.83;;
84818;SDS011;75053;51.080;13.712;2024-02-26T05:46:17;28.37;;;16.97;;
84818;SDS011;75053;51.080;13.712;2024-02-26T05:48:47;26.97;;;15.20;;
84818;SDS011;75053;51.080;13.712;2024-02-26T05:51:13;25.33;;;15.73;;
84818;SDS011;75053;51.080;13.712;2024-02-26T05:53:40;26.73;;;15.57;;
84818;SDS011;75053;51.080;13.712;2024-02-26T05:56:05;30.77;;;16.57;;
84818;SDS011;75053;51.080;13.712;2024-02-26T05:58:31;25.33;;;16.33;;
84818;SDS011;75053;51.080;13.712;2024-02-26T06:00:56;24.87;;;16.30;;
84818;SDS011;75053;51.080;13.712;2024-02-26T06:03:22;27.77;;;17.13;;
84818;SDS011;75053;51.080;13.712;2024-02-26T06:05:48;24.50;;;15.83;;
84818;SDS011;75053;51.080;13.712;2024-02-26T06:08:13;27.17;;;16.23;;
84818;SDS011;75053;51.080;13.712;2024-02-26T06:10:39;28.67;;;15.00;;
84818;SDS011;75053;51.080;13.712;2024-02-26T06:13:05;32.53;;;15.93;;
84818;SDS011;75053;51.080;13.712;2024-02-26T06:15:30;28.03;;;16.20;;
84818;SDS011;75053;51.080;13.712;2024-02-26T06:17:56;25.80;;;16.37;;
84818;SDS011;75053;51.080;13.712;2024-02-26T06:20:21;23.83;;;14.23;;
84818;SDS011;75053;51.080;13.712;2024-02-26T06:22:47;25.17;;;15.90;;
84818;SDS011;75053;51.080;13.712;2024-02-26T06:25:18;21.40;;;14.93;;
84818;SDS011;75053;51.080;13.712;2024-02-26T06:27:44;26.03;;;14.80;;
84818;SDS011;75053;51.080;13.712;2024-02-26T06:30:09;27.57;;;15.57;;
84818;SDS011;75053;51.080;13.712;2024-02-26T06:32:36;26.27;;;14.83;;
84818;SDS011;75053;51.080;13.712;2024-02-26T06:35:02;20.57;;;14.30;;
84818;SDS011;75053;51.080;13.712;2024-02-26T06:37:33;35.63;;;17.03;;
84818;SDS011;75053;51.080;13.712;2024-02-26T06:39:59;25.77;;;15.47;;
84818;SDS011;75053;51.080;13.712;2024-02-26T06:42:25;28.60;;;15.87;;
84818;SDS011;75053;51.080;13.712;2024-02-26T06:44:50;23.57;;;15.40;;
84818;SDS011;75053;51.080;13.712;2024-02-26T06:47:16;23.27;;;14.23;;
84818;SDS011;75053;51.080;13.712;2024-02-26T06:49:41;23.20;;;14.73;;
84818;SDS011;75053;51.080;13.712;2024-02-26T06:52:07;25.73;;;14.13;;
84818;SDS011;75053;51.080;13.712;2024-02-26T06:54:32;22.50;;;14.10;;
84818;SDS011;75053;51.080;13.712;2024-02-26T06:56:58;17.67;;;12.23;;
84818;SDS011;75053;51.080;13.712;2024-02-26T06:59:24;25.47;;;13.10;;
84818;SDS011;75053;51.080;13.712;2024-02-26T07:01:49;20.77;;;11.87;;
84818;SDS011;75053;51.080;13.712;2024-02-26T07:04:15;23.77;;;11.97;;
84818;SDS011;75053;51.080;13.712;2024-02-26T07:06:40;17.67;;;12.63;;
84818;SDS011;75053;51.080;13.712;2024-02-26T07:09:08;23.27;;;12.10;;
84818;SDS011;75053;51.080;13.712;2024-02-26T07:11:33;26.63;;;14.43;;
84818;SDS011;75053;51.080;13.712;2024-02-26T07:13:59;18.40;;;12.33;;
84818;SDS011;75053;51.080;13.712;2024-02-26T07:16:26;21.23;;;14.67;;
84818;SDS011;75053;51.080;13.712;2024-02-26T07:18:52;18.13;;;12.73;;
84818;SDS011;75053;51.080;13.712;2024-02-26T07:21:17;21.57;;;13.20;;
84818;SDS011;75053;51.080;13.712;2024-02-26T07:23:43;16.17;;;11.43;;
84818;SDS011;75053;51.080;13.712;2024-02-26T07:26:09;17.80;;;11.63;;
84818;SDS011;75053;51.080;13.712;2024-02-26T07:28:36;17.47;;;12.20;;
84818;SDS011;75053;51.080;13.712;2024-02-26T07:31:02;14.80;;;11.43;;
84818;SDS011;75053;51.080;13.712;2024-02-26T07:33:28;20.33;;;13.23;;
84818;SDS011;75053;51.080;13.712;2024-02-26T07:35:54;21.87;;;11.63;;
84818;SDS011;75053;51.080;13.712;2024-02-26T07:38:19;20.30;;;12.20;;
84818;SDS011;75053;51.080;13.712;2024-02-26T07:40:45;21.70;;;13.50;;
84818;SDS011;75053;51.080;13.712;2024-02-26T07:43:13;24.20;;;12.37;;
84818;SDS011;75053;51.080;13.712;2024-02-26T07:45:39;21.40;;;12.97;;
84818;SDS011;75053;51.080;13.712;2024-02-26T07:48:04;29.17;;;12.83;;
84818;SDS011;75053;51.080;13.712;2024-02-26T07:50:31;23.87;;;13.30;;
84818;SDS011;75053;51.080;13.712;2024-02-26T07:52:57;24.13;;;13.23;;
84818;SDS011;75053;51.080;13.712;2024-02-26T07:55:23;20.80;;;11.40;;
84818;SDS011;75053;51.080;13.712;2024-02-26T07:57:49;22.23;;;11.87;;
84818;SDS011;75053;51.080;13.712;2024-02-26T08:00:14;16.43;;;11.10;;
84818;SDS011;75053;51.080;13.712;2024-02-26T08:02:42;21.10;;;11.50;;
84818;SDS011;75053;51.080;13.712;2024-02-26T08:05:08;23.77;;;11.43;;
84818;SDS011;75053;51.080;13.712;2024-02-26T08:07:34;17.63;;;11.43;;
84818;SDS011;75053;51.080;13.712;2024-02-26T08:09:59;21.37;;;11.87;;
84818;SDS011;75053;51.080;13.712;2024-02-26T08:12:25;20.07;;;12.13;;
84818;SDS011;75053;51.080;13.712;2024-02-26T08:14:50;20.73;;;11.17;;
84818;SDS011;75053;51.080;13.712;2024-02-26T08:17:21;29.40;;;16.27;;
84818;SDS011;75053;51.080;13.712;2024-02-26T08:19:47;38.27;;;21.60;;
84818;SDS011;75053;51.080;13.712;2024-02-26T08:22:12;24.60;;;16.40;;
84818;SDS011;75053;51.080;13.712;2024-02-26T08:24:41;22.30;;;13.70;;
84818;SDS011;75053;51.080;13.712;2024-02-26T08:27:07;18.83;;;10.83;;
84818;SDS011;75053;51.080;13.712;2024-02-26T08:29:33;18.53;;;10.87;;
84818;SDS011;75053;51.080;13.712;2024-02-26T08:31:58;14.97;;;10.53;;
84818;SDS011;75053;51.080;13.712;2024-02-26T08:34:24;15.67;;;10.33;;
84818;SDS011;75053;51.080;13.712;2024-02-26T08:36:50;14.67;;;10.57;;
84818;SDS011;75053;51.080;13.712;2024-02-26T08:39:16;14.90;;;8.37;;
84818;SDS011;75053;51.080;13.712;2024-02-26T08:41:43;15.37;;;8.93;;
84818;SDS011;75053;51.080;13.712;2024-02-26T08:44:09;13.40;;;8.20;;
84818;SDS011;75053;51.080;13.712;2024-02-26T08:46:34;22.43;;;9.87;;
84818;SDS011;75053;51.080;13.712;2024-02-26T08:49:03;17.17;;;10.07;;
84818;SDS011;75053;51.080;13.712;2024-02-26T08:51:29;14.27;;;9.53;;
84818;SDS011;75053;51.080;13.712;2024-02-26T08:53:54;17.13;;;9.37;;
84818;SDS011;75053;51.080;13.712;2024-02-26T08:56:20;14.53;;;9.07;;
84818;SDS011;75053;51.080;13.712;2024-02-26T08:58:46;13.03;;;9.30;;
84818;SDS011;75053;51.080;13.712;2024-02-26T09:01:16;11.80;;;8.40;;
84818;SDS011;75053;51.080;13.712;2024-02-26T09:03:42;18.90;;;9.00;;
84818;SDS011;75053;51.080;13.712;2024-02-26T09:06:08;14.30;;;9.13;;
84818;SDS011;75053;51.080;13.712;2024-02-26T09:08:33;18.33;;;10.17;;
84818;SDS011;75053;51.080;13.712;2024-02-26T09:11:01;14.33;;;9.37;;
84818;SDS011;75053;51.080;13.712;2024-02-26T09:13:26;12.27;;;8.30;;
84818;SDS011;75053;51.080;13.712;2024-02-26T09:15:52;14.53;;;8.50;;
84818;SDS011;75053;51.080;13.712;2024-02-26T09:18:17;15.63;;;8.90;;
84818;SDS011;75053;51.080;13.712;2024-02-26T09:20:43;14.57;;;9.30;;
84818;SDS011;75053;51.080;13.712;2024-02-26T09:23:09;12.83;;;8.90;;
84818;SDS011;75053;51.080;13.712;2024-02-26T09:25:34;11.88;;;8.75;;
84818;SDS011;75053;51.080;13.712;2024-02-26T09:28:00;10.30;;;8.27;;
84818;SDS011;75053;51.080;13.712;2024-02-26T09:30:26;15.27;;;8.75;;
84818;SDS011;75053;51.080;13.712;2024-02-26T09:32:52;13.93;;;8.57;;
84818;SDS011;75053;51.080;13.712;2024-02-26T09:35:17;27.30;;;17.42;;
84818;SDS011;75053;51.080;13.712;2024-02-26T09:37:43;14.52;;;10.48;;
84818;SDS011;75053;51.080;13.712;2024-02-26T09:40:09;11.57;;;8.50;;
84818;SDS011;75053;51.080;13.712;2024-02-26T09:42:37;14.65;;;9.27;;
84818;SDS011;75053;51.080;13.712;2024-02-26T09:45:07;10.75;;;7.88;;
84818;SDS011;75053;51.080;13.712;2024-02-26T09:47:37;14.15;;;9.57;;
84818;SDS011;75053;51.080;13.712;2024-02-26T09:50:03;16.60;;;9.35;;
84818;SDS011;75053;51.080;13.712;2024-02-26T09:52:34;13.95;;;8.90;;
84818;SDS011;75053;51.080;13.712;2024-02-26T09:55:03;20.65;;;13.02;;
84818;SDS011;75053;51.080;13.712;2024-02-26T09:57:29;17.02;;;10.80;;
84818;SDS011;75053;51.080;13.712;2024-02-26T09:59:56;10.80;;;8.43;;
84818;SDS011;75053;51.080;13.712;2024-02-26T10:02:28;15.32;;;9.00;;
84818;SDS011;75053;51.080;13.712;2024-02-26T10:04:55;12.85;;;10.00;;
84818;SDS011;75053;51.080;13.712;2024-02-26T10:07:26;13.43;;;9.45;;
84818;SDS011;75053;51.080;13.712;2024-02-26T10:09:55;13.43;;;9.57;;
84818;SDS011;75053;51.080;13.712;2024-02-26T10:12:20;19.60;;;11.73;;
84818;SDS011;75053;51.080;13.712;2024-02-26T10:14:47;13.30;;;9.75;;
84818;SDS011;75053;51.080;13.712;2024-02-26T10:17:12;21.50;;;14.32;;
84818;SDS011;75053;51.080;13.712;2024-02-26T10:19:38;13.65;;;9.25;;
84818;SDS011;75053;51.080;13.712;2024-02-26T10:22:04;16.17;;;8.98;;
84818;SDS011;75053;51.080;13.712;2024-02-26T10:24:30;13.02;;;7.78;;
84818;SDS011;75053;51.080;13.712;2024-02-26T10:27:01;24.40;;;16.35;;
84818;SDS011;75053;51.080;13.712;2024-02-26T10:29:36;9.52;;;7.85;;
84818;SDS011;75053;51.080;13.712;2024-02-26T10:32:01;10.98;;;7.40;;
84818;SDS011;75053;51.080;13.712;2024-02-26T10:34:27;9.73;;;7.53;;
84818;SDS011;75053;51.080;13.712;2024-02-26T10:36:53;9.00;;;7.80;;
84818;SDS011;75053;51.080;13.712;2024-02-26T10:39:18;10.40;;;7.60;;
84818;SDS011;75053;51.080;13.712;2024-02-26T10:41:44;12.52;;;7.50;;
84818;SDS011;75053;51.080;13.712;2024-02-26T10:44:12;11.73;;;7.70;;
84818;SDS011;75053;51.080;13.712;2024-02-26T10:46:40;12.70;;;8.23;;
84818;SDS011;75053;51.080;13.712;2024-02-26T10:49:08;10.07;;;7.00;;
84818;SDS011;75053;51.080;13.712;2024-02-26T10:51:39;9.00;;;7.25;;
84818;SDS011;75053;51.080;13.712;2024-02-26T10:54:15;13.13;;;7.00;;
84818;SDS011;75053;51.080;13.712;2024-02-26T10:56:42;11.88;;;7.90;;
84818;SDS011;75053;51.080;13.712;2024-02-26T10:59:11;8.25;;;7.03;;
84818;SDS011;75053;51.080;13.712;2024-02-26T11:01:37;9.65;;;7.53;;
84818;SDS011;75053;51.080;13.712;2024-02-26T11:04:06;9.30;;;7.30;;
84818;SDS011;75053;51.080;13.712;2024-02-26T11:06:33;11.82;;;7.32;;
84818;SDS011;75053;51.080;13.712;2024-02-26T11:08:59;12.70;;;7.38;;
84818;SDS011;75053;51.080;13.712;2024-02-26T11:11:27;7.68;;;6.40;;
84818;SDS011;75053;51.080;13.712;2024-02-26T11:13:57;8.93;;;7.25;;
84818;SDS011;75053;51.080;13.712;2024-02-26T11:16:26;9.60;;;7.22;;
84818;SDS011;75053;51.080;13.712;2024-02-26T11:18:56;9.75;;;6.57;;
84818;SDS011;75053;51.080;13.712;2024-02-26T11:21:23;11.45;;;7.15;;
84818;SDS011;75053;51.080;13.712;2024-02-26T11:24:03;7.78;;;6.80;;
84818;SDS011;75053;51.080;13.712;2024-02-26T11:26:31;8.98;;;7.07;;
84818;SDS011;75053;51.080;13.712;2024-02-26T11:29:01;8.02;;;6.85;;
84818;SDS011;75053;51.080;13.712;2024-02-26T11:31:30;12.40;;;7.70;;
84818;SDS011;75053;51.080;13.712;2024-02-26T11:34:03;10.15;;;6.53;;
84818;SDS011;75053;51.080;13.712;2024-02-26T11:36:28;9.07;;;7.10;;
84818;SDS011;75053;51.080;13.712;2024-02-26T11:38:55;11.50;;;7.50;;
84818;SDS011;75053;51.080;13.712;2024-02-26T11:41:23;9.70;;;7.32;;
84818;SDS011;75053;51.080;13.712;2024-02-26T11:43:59;9.55;;;6.45;;
84818;SDS011;75053;51.080;13.712;2024-02-26T11:48:59;9.95;;;6.70;;
84818;SDS011;75053;51.080;13.712;2024-02-26T11:51:32;12.85;;;6.85;;
84818;SDS011;75053;51.080;13.712;2024-02-26T11:53:58;14.32;;;8.05;;
84818;SDS011;75053;51.080;13.712;2024-02-26T11:56:27;9.38;;;7.05;;
84818;SDS011;75053;51.080;13.712;2024-02-26T12:01:40;12.55;;;6.25;;
84818;SDS011;75053;51.080;13.712;2024-02-26T12:04:27;8.13;;;6.80;;
84818;SDS011;75053;51.080;13.712;2024-02-26T12:07:05;9.60;;;6.55;;
84818;SDS011;75053;51.080;13.712;2024-02-26T12:09:41;10.65;;;7.35;;
84818;SDS011;75053;51.080;13.712;2024-02-26T12:12:07;6.40;;;5.65;;
84818;SDS011;75053;51.080;13.712;2024-02-26T12:14:38;12.45;;;6.32;;
84818;SDS011;75053;51.080;13.712;2024-02-26T12:17:08;10.43;;;7.03;;
84818;SDS011;75053;51.080;13.712;2024-02-26T12:19:45;12.80;;;7.95;;
84818;SDS011;75053;51.080;13.712;2024-02-26T12:22:15;9.57;;;6.82;;
84818;SDS011;75053;51.080;13.712;2024-02-26T12:24:44;10.50;;;6.90;;
84818;SDS011;75053;51.080;13.712;2024-02-26T12:27:23;8.90;;;7.43;;
84818;SDS011;75053;51.080;13.712;2024-02-26T12:29:48;8.20;;;7.38;;
84818;SDS011;75053;51.080;13.712;2024-02-26T12:32:14;9.73;;;6.80;;
84818;SDS011;75053;51.080;13.712;2024-02-26T12:34:39;10.40;;;6.53;;
84818;SDS011;75053;51.080;13.712;2024-02-26T12:37:05;10.68;;;7.03;;
84818;SDS011;75053;51.080;13.712;2024-02-26T12:39:33;9.52;;;6.43;;
84818;SDS011;75053;51.080;13.712;2024-02-26T12:41:59;10.75;;;6.70;;
84818;SDS011;75053;51.080;13.712;2024-02-26T12:44:25;15.23;;;7.28;;
84818;SDS011;75053;51.080;13.712;2024-02-26T12:46:51;9.70;;;7.47;;
84818;SDS011;75053;51.080;13.712;2024-02-26T12:49:24;10.57;;;7.35;;
84818;SDS011;75053;51.080;13.712;2024-02-26T12:51:50;9.27;;;7.03;;
84818;SDS011;75053;51.080;13.712;2024-02-26T12:54:20;12.48;;;6.88;;
84818;SDS011;75053;51.080;13.712;2024-02-26T12:56:46;8.40;;;5.93;;
84818;SDS011;75053;51.080;13.712;2024-02-26T12:59:14;7.95;;;6.70;;
84818;SDS011;75053;51.080;13.712;2024-02-26T13:01:40;8.52;;;6.55;;
84818;SDS011;75053;51.080;13.712;2024-02-26T13:04:06;11.60;;;6.75;;
84818;SDS011;75053;51.080;13.712;2024-02-26T13:06:32;10.52;;;6.88;;
84818;SDS011;75053;51.080;13.712;2024-02-26T13:08:59;7.47;;;6.25;;
84818;SDS011;75053;51.080;13.712;2024-02-26T13:11:25;7.43;;;6.35;;
84818;SDS011;75053;51.080;13.712;2024-02-26T13:13:50;9.18;;;6.13;;
84818;SDS011;75053;51.080;13.712;2024-02-26T13:16:19;11.93;;;8.25;;
84818;SDS011;75053;51.080;13.712;2024-02-26T13:18:44;10.57;;;6.82;;
84818;SDS011;75053;51.080;13.712;2024-02-26T13:21:13;12.80;;;7.10;;
84818;SDS011;75053;51.080;13.712;2024-02-26T13:23:40;13.43;;;8.63;;
84818;SDS011;75053;51.080;13.712;2024-02-26T13:26:07;11.70;;;8.15;;
84818;SDS011;75053;51.080;13.712;2024-02-26T13:28:33;11.82;;;6.70;;
84818;SDS011;75053;51.080;13.712;2024-02-26T13:30:59;8.70;;;6.50;;
84818;SDS011;75053;51.080;13.712;2024-02-26T13:33:26;10.45;;;6.50;;
84818;SDS011;75053;51.080;13.712;2024-02-26T13:35:54;14.50;;;5.97;;
84818;SDS011;75053;51.080;13.712;2024-02-26T13:38:23;8.43;;;6.50;;
84818;SDS011;75053;51.080;13.712;2024-02-26T13:40:52;10.48;;;6.50;;
84818;SDS011;75053;51.080;13.712;2024-02-26T13:43:18;12.18;;;6.32;;
84818;SDS011;75053;51.080;13.712;2024-02-26T13:45:50;8.52;;;6.38;;
84818;SDS011;75053;51.080;13.712;2024-02-26T13:48:15;11.20;;;6.30;;
84818;SDS011;75053;51.080;13.712;2024-02-26T13:50:41;6.30;;;5.60;;
84818;SDS011;75053;51.080;13.712;2024-02-26T13:53:13;11.25;;;8.23;;
84818;SDS011;75053;51.080;13.712;2024-02-26T13:55:39;9.82;;;8.27;;
84818;SDS011;75053;51.080;13.712;2024-02-26T13:58:07;7.20;;;5.80;;
84818;SDS011;75053;51.080;13.712;2024-02-26T14:00:36;10.02;;;6.63;;
84818;SDS011;75053;51.080;13.712;2024-02-26T14:03:02;9.10;;;7.55;;
84818;SDS011;75053;51.080;13.712;2024-02-26T14:05:28;8.00;;;6.68;;
84818;SDS011;75053;51.080;13.712;2024-02-26T14:07:54;9.82;;;5.97;;
84818;SDS011;75053;51.080;13.712;2024-02-26T14:10:20;7.22;;;5.57;;
84818;SDS011;75053;51.080;13.712;2024-02-26T14:12:46;8.48;;;6.28;;
84818;SDS011;75053;51.080;13.712;2024-02-26T14:15:11;10.70;;;6.30;;
84818;SDS011;75053;51.080;13.712;2024-02-26T14:17:37;8.50;;;6.68;;
84818;SDS011;75053;51.080;13.712;2024-02-26T14:20:03;9.57;;;5.88;;
84818;SDS011;75053;51.080;13.712;2024-02-26T14:22:29;10.38;;;6.13;;